Time;durP1;ratioP1;P1;durP2;ratioP2;P2;SDS_P1;SDS_P2;PMS_P1;PMS_P2;Temp;Humidity;BMP_temperature;BMP_pressure;BME280_temperature;BME280_humidity;BME280_pressure;Samples;Min_cycle;Max_cycle;Signal;HPM_P1;HPM_P2
2023/04/10 00:02:19;;;;;;;10.98;10.07;;;;;;;;;;5038572;28;20391;-81
2023/04/10 00:04:45;;;;;;;11.07;10.18;;;;;;;;;;5044620;28;20382;-80
2023/04/10 00:07:11;;;;;;;11.15;10.25;;;;;;;;;;5047316;28;20388;-81
2023/04/10 00:09:38;;;;;;;11.27;10.38;;;;;;;;;;5042770;28;20375;-80
2023/04/10 00:12:04;;;;;;;10.93;10.03;;;;;;;;;;5043849;28;20377;-80
2023/04/10 00:14:30;;;;;;;10.68;9.80;;;;;;;;;;5038549;28;20377;-81
2023/04/10 00:16:56;;;;;;;11.07;10.27;;;;;;;;;;5051793;28;20775;-81
2023/04/10 00:19:22;;;;;;;12.05;11.02;;;;;;;;;;5052255;28;20389;-80
2023/04/10 00:21:48;;;;;;;11.00;10.18;;;;;;;;;;5052026;28;20409;-80
2023/04/10 00:24:14;;;;;;;11.32;10.45;;;;;;;;;;5057124;28;20395;-80
2023/04/10 00:26:40;;;;;;;10.55;9.75;;;;;;;;;;5064307;28;20372;-80
2023/04/10 00:29:07;;;;;;;10.68;9.85;;;;;;;;;;5058933;28;20387;-79
2023/04/10 00:31:33;;;;;;;10.82;9.90;;;;;;;;;;5061087;28;20382;-80
2023/04/10 00:33:59;;;;;;;10.83;9.93;;;;;;;;;;5068531;28;20471;-80
2023/04/10 00:36:25;;;;;;;10.88;9.98;;;;;;;;;;5071808;28;20876;-80
2023/04/10 00:38:51;;;;;;;10.80;9.95;;;;;;;;;;5071660;28;20439;-80
2023/04/10 00:41:17;;;;;;;10.57;9.77;;;;;;;;;;5064944;28;20413;-80
2023/04/10 00:43:44;;;;;;;10.27;9.48;;;;;;;;;;5057642;28;20466;-79
2023/04/10 00:46:10;;;;;;;10.55;9.75;;;;;;;;;;5056473;28;20387;-80
2023/04/10 00:48:36;;;;;;;10.30;9.48;;;;;;;;;;5061024;28;20389;-81
2023/04/10 00:51:02;;;;;;;10.18;9.32;;;;;;;;;;5045319;28;20471;-80
2023/04/10 00:53:28;;;;;;;10.73;9.90;;;;;;;;;;5049589;28;20936;-79
2023/04/10 00:55:55;;;;;;;10.80;9.90;;;;;;;;;;5049174;28;20909;-80
2023/04/10 00:58:21;;;;;;;10.15;9.25;;;;;;;;;;5044427;28;20409;-81
2023/04/10 01:00:47;;;;;;;9.53;8.83;;;;;;;;;;5036920;28;20382;-81
2023/04/10 01:03:15;;;;;;;10.73;9.90;;;;;;;;;;5049550;28;20396;-80
2023/04/10 01:05:48;;;;;;;10.18;9.30;;;;;;;;;;5042721;28;20390;-80
2023/04/10 01:08:21;;;;;;;10.10;9.30;;;;;;;;;;5046501;28;20893;-80
2023/04/10 01:10:47;;;;;;;9.93;9.13;;;;;;;;;;5032168;28;20429;-78
2023/04/10 01:13:25;;;;;;;10.20;9.40;;;;;;;;;;5033092;28;20378;-79
2023/04/10 01:16:26;;;;;;;9.65;8.95;;;;;;;;;;5039275;28;20403;-79
2023/04/10 01:18:58;;;;;;;10.02;9.23;;;;;;;;;;5027137;28;20418;-81
2023/04/10 01:21:25;;;;;;;10.05;9.25;;;;;;;;;;5036359;28;20406;-80
2023/04/10 01:24:10;;;;;;;9.70;9.00;;;;;;;;;;5046712;28;20377;-80
2023/04/10 01:26:36;;;;;;;9.50;8.80;;;;;;;;;;5048262;28;20408;-80
2023/04/10 01:29:11;;;;;;;9.68;8.88;;;;;;;;;;5049214;28;20898;-80
2023/04/10 01:31:57;;;;;;;9.63;8.93;;;;;;;;;;5044143;28;20412;-78
2023/04/10 01:34:25;;;;;;;9.98;9.18;;;;;;;;;;5032919;28;20408;-80
2023/04/10 01:36:54;;;;;;;9.80;9.00;;;;;;;;;;5042542;28;20382;-79
2023/04/10 01:39:21;;;;;;;10.00;9.20;;;;;;;;;;5042704;28;20397;-79
2023/04/10 01:41:51;;;;;;;9.52;8.73;;;;;;;;;;5037522;28;20397;-78
2023/04/10 01:44:17;;;;;;;9.80;9.00;;;;;;;;;;5040623;28;20411;-79
2023/04/10 01:46:44;;;;;;;9.43;8.73;;;;;;;;;;5043666;28;20430;-79
2023/04/10 01:49:10;;;;;;;9.85;9.05;;;;;;;;;;5049682;28;20476;-80
2023/04/10 01:51:36;;;;;;;9.38;8.68;;;;;;;;;;5045027;28;20393;-79
2023/04/10 01:54:03;;;;;;;10.32;9.52;;;;;;;;;;5046680;28;20384;-79
2023/04/10 01:56:29;;;;;;;9.68;8.98;;;;;;;;;;5050236;28;20754;-80
2023/04/10 01:58:56;;;;;;;9.80;9.00;;;;;;;;;;5041775;28;20411;-80
2023/04/10 02:01:22;;;;;;;9.70;9.00;;;;;;;;;;5041849;28;20442;-79
2023/04/10 02:03:48;;;;;;;9.65;8.95;;;;;;;;;;5041188;28;20373;-79
2023/04/10 02:06:23;;;;;;;9.77;9.07;;;;;;;;;;5049218;28;20408;-80
2023/04/10 02:08:55;;;;;;;9.30;8.60;;;;;;;;;;5050556;28;20385;-79
2023/04/10 02:11:31;;;;;;;9.07;8.38;;;;;;;;;;5050635;28;20389;-79
2023/04/10 02:14:00;;;;;;;9.50;8.80;;;;;;;;;;5050641;28;20424;-79
2023/04/10 02:16:27;;;;;;;9.70;8.90;;;;;;;;;;5043556;28;20412;-79
2023/04/10 02:18:53;;;;;;;9.68;8.98;;;;;;;;;;5047296;28;20409;-79
2023/04/10 02:21:19;;;;;;;9.68;8.88;;;;;;;;;;5048807;28;20417;-78
2023/04/10 02:23:45;;;;;;;9.48;8.77;;;;;;;;;;5057877;28;20443;-79
2023/04/10 02:26:11;;;;;;;9.35;8.65;;;;;;;;;;5072953;28;20482;-80
2023/04/10 02:28:38;;;;;;;8.85;8.15;;;;;;;;;;5060237;28;20469;-79
2023/04/10 02:31:04;;;;;;;8.85;8.18;;;;;;;;;;5072062;28;20394;-79
2023/04/10 02:33:30;;;;;;;9.30;8.60;;;;;;;;;;5071188;28;20380;-79
2023/04/10 02:35:56;;;;;;;8.82;8.13;;;;;;;;;;5062875;28;20378;-79
2023/04/10 02:38:22;;;;;;;9.23;8.52;;;;;;;;;;5065123;28;20919;-79
2023/04/10 02:40:49;;;;;;;9.82;8.93;;;;;;;;;;5065419;28;20379;-80
2023/04/10 02:43:15;;;;;;;9.05;8.35;;;;;;;;;;5074384;28;20376;-80
2023/04/10 02:45:41;;;;;;;8.95;8.25;;;;;;;;;;5069884;28;20389;-79
2023/04/10 02:48:07;;;;;;;8.90;8.20;;;;;;;;;;5054917;28;20720;-79
2023/04/10 02:50:33;;;;;;;8.73;8.02;;;;;;;;;;5053826;28;20388;-79
2023/04/10 02:53:00;;;;;;;8.57;7.90;;;;;;;;;;5059210;28;20384;-79
2023/04/10 02:55:26;;;;;;;9.07;8.38;;;;;;;;;;5069539;28;20376;-79
2023/04/10 02:57:52;;;;;;;8.90;8.20;;;;;;;;;;5060514;28;20396;-79
2023/04/10 03:00:18;;;;;;;8.73;8.13;;;;;;;;;;5073706;28;20872;-79
2023/04/10 03:02:44;;;;;;;9.27;8.47;;;;;;;;;;5073637;28;21206;-79
2023/04/10 03:05:10;;;;;;;9.18;8.48;;;;;;;;;;5073637;28;20380;-79
2023/04/10 03:07:36;;;;;;;9.10;8.40;;;;;;;;;;5060047;28;20431;-79
2023/04/10 03:10:02;;;;;;;10.45;9.65;;;;;;;;;;5059089;28;20393;-79
2023/04/10 03:12:28;;;;;;;9.23;8.52;;;;;;;;;;5065256;28;20922;-79
2023/04/10 03:14:55;;;;;;;9.10;8.40;;;;;;;;;;5073406;28;20380;-79
2023/04/10 03:17:21;;;;;;;8.98;8.27;;;;;;;;;;5073117;28;20514;-80
2023/04/10 03:19:47;;;;;;;9.10;8.40;;;;;;;;;;5073359;28;20888;-80
2023/04/10 03:22:13;;;;;;;9.27;8.57;;;;;;;;;;5065414;28;20409;-80
2023/04/10 03:24:39;;;;;;;8.75;8.05;;;;;;;;;;5063160;28;20864;-80
2023/04/10 03:27:05;;;;;;;8.65;7.95;;;;;;;;;;5067656;28;20776;-80
2023/04/10 03:29:31;;;;;;;9.02;8.32;;;;;;;;;;5043105;28;20390;-78
2023/04/10 03:31:57;;;;;;;9.07;8.38;;;;;;;;;;5045880;28;20373;-79
2023/04/10 03:34:24;;;;;;;8.90;8.10;;;;;;;;;;5051114;28;20882;-79
2023/04/10 03:36:50;;;;;;;9.60;8.80;;;;;;;;;;5049281;28;20719;-79
2023/04/10 03:39:16;;;;;;;8.93;8.23;;;;;;;;;;5047667;28;20411;-79
2023/04/10 03:41:42;;;;;;;9.45;8.65;;;;;;;;;;5040527;28;20390;-79
2023/04/10 03:44:08;;;;;;;8.77;8.07;;;;;;;;;;5046611;28;20397;-79
2023/04/10 03:46:34;;;;;;;9.23;8.43;;;;;;;;;;5048380;28;20461;-79
2023/04/10 03:49:00;;;;;;;8.90;8.20;;;;;;;;;;5048674;28;20479;-81
2023/04/10 03:51:26;;;;;;;9.48;8.68;;;;;;;;;;5048220;28;21113;-79
2023/04/10 03:53:52;;;;;;;9.35;8.55;;;;;;;;;;5042269;28;20880;-79
2023/04/10 03:56:18;;;;;;;9.00;8.20;;;;;;;;;;5050263;28;20382;-79
2023/04/10 03:58:44;;;;;;;8.77;8.07;;;;;;;;;;5050415;28;20405;-79
2023/04/10 04:01:10;;;;;;;8.90;8.10;;;;;;;;;;5036735;28;20395;-80
2023/04/10 04:03:36;;;;;;;8.77;8.07;;;;;;;;;;5049715;28;20743;-80
2023/04/10 04:06:02;;;;;;;8.75;8.05;;;;;;;;;;5051128;28;20390;-80
2023/04/10 04:08:29;;;;;;;8.75;8.05;;;;;;;;;;5042692;28;20979;-81
2023/04/10 04:10:54;;;;;;;8.93;8.20;;;;;;;;;;5049500;28;20878;-80
2023/04/10 04:13:20;;;;;;;9.00;8.30;;;;;;;;;;5040324;28;20397;-79
2023/04/10 04:15:46;;;;;;;8.68;7.97;;;;;;;;;;5040715;28;20467;-80
2023/04/10 04:18:13;;;;;;;9.23;8.45;;;;;;;;;;5034656;28;20451;-80
2023/04/10 04:20:39;;;;;;;8.65;7.95;;;;;;;;;;5032882;28;20380;-80
2023/04/10 04:23:05;;;;;;;8.68;7.97;;;;;;;;;;5057853;28;20485;-80
2023/04/10 04:25:31;;;;;;;8.90;8.20;;;;;;;;;;5033471;28;20377;-80
2023/04/10 04:27:56;;;;;;;9.10;8.40;;;;;;;;;;5033606;28;20437;-80
2023/04/10 04:30:22;;;;;;;9.38;8.68;;;;;;;;;;5034146;28;20745;-79
2023/04/10 04:32:48;;;;;;;9.45;8.65;;;;;;;;;;5033243;28;20395;-80
2023/04/10 04:35:14;;;;;;;9.43;8.68;;;;;;;;;;5032158;28;20386;-80
2023/04/10 04:37:40;;;;;;;9.80;9.00;;;;;;;;;;5034035;28;20835;-79
2023/04/10 04:40:07;;;;;;;9.50;8.70;;;;;;;;;;5051781;28;20378;-80
2023/04/10 04:42:33;;;;;;;10.15;9.35;;;;;;;;;;5051330;28;20385;-80
2023/04/10 04:44:59;;;;;;;9.70;8.90;;;;;;;;;;5051540;28;20374;-80
2023/04/10 04:47:25;;;;;;;9.93;9.02;;;;;;;;;;5051672;28;20384;-79
2023/04/10 04:49:51;;;;;;;9.67;8.87;;;;;;;;;;5050195;28;20752;-80
2023/04/10 04:52:17;;;;;;;9.70;8.90;;;;;;;;;;5051341;28;20385;-81
2023/04/10 04:54:43;;;;;;;9.32;8.63;;;;;;;;;;5050915;28;20377;-80
2023/04/10 04:57:09;;;;;;;9.68;8.80;;;;;;;;;;5049759;28;20384;-79
2023/04/10 04:59:35;;;;;;;9.13;8.43;;;;;;;;;;5047592;28;20763;-80
2023/04/10 05:02:01;;;;;;;8.90;8.20;;;;;;;;;;5051106;28;20468;-80
2023/04/10 05:04:27;;;;;;;8.73;8.02;;;;;;;;;;5051347;28;20485;-80
2023/04/10 05:06:53;;;;;;;9.10;8.30;;;;;;;;;;5051359;28;20388;-79
2023/04/10 05:09:19;;;;;;;9.82;9.02;;;;;;;;;;5051261;28;20890;-80
2023/04/10 05:11:45;;;;;;;10.10;9.30;;;;;;;;;;5051251;28;20381;-80
2023/04/10 05:14:11;;;;;;;9.43;8.65;;;;;;;;;;5051312;28;20388;-80
2023/04/10 05:16:36;;;;;;;9.50;8.70;;;;;;;;;;5050883;28;20460;-80
2023/04/10 05:19:02;;;;;;;8.77;8.07;;;;;;;;;;5051114;28;20408;-80
2023/04/10 05:21:30;;;;;;;8.90;8.20;;;;;;;;;;5050998;28;20885;-80
2023/04/10 05:23:56;;;;;;;9.00;8.20;;;;;;;;;;5055076;28;20371;-80
2023/04/10 05:26:22;;;;;;;8.52;7.93;;;;;;;;;;5071156;28;20376;-80
2023/04/10 05:28:48;;;;;;;9.57;8.77;;;;;;;;;;5071048;28;20382;-80
2023/04/10 05:31:14;;;;;;;9.27;8.57;;;;;;;;;;5055007;28;20494;-80
2023/04/10 05:33:40;;;;;;;9.38;8.60;;;;;;;;;;5045322;28;20468;-80
2023/04/10 05:36:06;;;;;;;9.35;8.55;;;;;;;;;;5057138;28;20466;-80
2023/04/10 05:38:32;;;;;;;8.70;8.00;;;;;;;;;;5071220;28;20430;-80
2023/04/10 05:40:58;;;;;;;9.93;9.13;;;;;;;;;;5071127;28;20857;-80
2023/04/10 05:43:24;;;;;;;9.80;9.00;;;;;;;;;;5062960;28;20455;-79
2023/04/10 05:45:50;;;;;;;10.25;9.45;;;;;;;;;;5070997;28;20411;-80
2023/04/10 05:48:16;;;;;;;9.90;9.00;;;;;;;;;;5055913;28;20731;-80
2023/04/10 05:50:42;;;;;;;9.65;8.75;;;;;;;;;;5051093;28;20377;-80
2023/04/10 05:53:13;;;;;;;9.52;8.73;;;;;;;;;;5054271;28;20381;-80
2023/04/10 05:55:39;;;;;;;9.50;8.70;;;;;;;;;;5050660;28;20874;-79
2023/04/10 05:58:05;;;;;;;8.75;8.05;;;;;;;;;;5050661;28;20480;-80
2023/04/10 06:00:31;;;;;;;8.38;7.68;;;;;;;;;;5050303;28;20391;-80
2023/04/10 06:02:57;;;;;;;9.00;8.30;;;;;;;;;;5052437;28;20380;-80
2023/04/10 06:05:23;;;;;;;9.05;8.25;;;;;;;;;;5050312;28;20931;-80
2023/04/10 06:07:50;;;;;;;8.95;8.25;;;;;;;;;;5049086;28;20397;-79
2023/04/10 06:10:16;;;;;;;9.05;8.32;;;;;;;;;;5051474;28;20385;-79
2023/04/10 06:12:42;;;;;;;9.52;8.80;;;;;;;;;;5053372;28;20385;-79
2023/04/10 06:15:08;;;;;;;8.82;8.13;;;;;;;;;;5054530;28;20774;-79
2023/04/10 06:17:35;;;;;;;8.50;7.80;;;;;;;;;;5054463;28;20898;-80
2023/04/10 06:20:03;;;;;;;9.18;8.48;;;;;;;;;;5054542;28;20858;-80
2023/04/10 06:22:29;;;;;;;8.48;7.78;;;;;;;;;;5054187;28;20411;-81
2023/04/10 06:24:56;;;;;;;8.55;7.82;;;;;;;;;;5065302;28;20429;-80
2023/04/10 06:27:22;;;;;;;8.30;7.70;;;;;;;;;;5071696;28;20378;-80
2023/04/10 06:29:48;;;;;;;8.82;8.13;;;;;;;;;;5064633;28;20376;-83
2023/04/10 06:32:14;;;;;;;9.40;8.60;;;;;;;;;;5049148;28;20389;-80
2023/04/10 06:34:40;;;;;;;8.32;7.63;;;;;;;;;;5058475;28;20459;-79
2023/04/10 06:37:06;;;;;;;8.60;7.90;;;;;;;;;;5059978;28;20409;-80
2023/04/10 06:39:32;;;;;;;8.30;7.60;;;;;;;;;;5074219;28;20804;-80
2023/04/10 06:41:58;;;;;;;8.30;7.70;;;;;;;;;;5073974;28;20372;-82
2023/04/10 06:44:24;;;;;;;8.10;7.50;;;;;;;;;;5066712;28;20379;-81
2023/04/10 06:46:50;;;;;;;8.70;8.00;;;;;;;;;;5044449;28;20377;-81
2023/04/10 06:49:16;;;;;;;8.60;7.93;;;;;;;;;;5053046;28;20377;-81
2023/04/10 06:51:44;;;;;;;8.30;7.60;;;;;;;;;;5041982;28;20421;-81
2023/04/10 06:54:10;;;;;;;8.80;8.10;;;;;;;;;;5053353;28;20384;-81
2023/04/10 06:56:36;;;;;;;8.70;8.05;;;;;;;;;;5053222;28;20393;-81
2023/04/10 06:59:02;;;;;;;8.88;8.18;;;;;;;;;;5053707;28;20488;-80
2023/04/10 07:01:28;;;;;;;8.85;8.15;;;;;;;;;;5053630;28;20474;-79
2023/04/10 07:03:55;;;;;;;9.65;8.85;;;;;;;;;;5053420;28;20815;-80
2023/04/10 07:06:21;;;;;;;9.68;8.88;;;;;;;;;;5048331;28;20468;-82
2023/04/10 07:08:48;;;;;;;9.35;8.65;;;;;;;;;;5053936;28;20403;-82
2023/04/10 07:11:14;;;;;;;9.60;8.80;;;;;;;;;;5052912;28;20498;-83
2023/04/10 07:13:40;;;;;;;10.18;9.32;;;;;;;;;;5053548;28;20389;-82
2023/04/10 07:16:10;;;;;;;10.00;9.20;;;;;;;;;;5052391;28;20748;-82
2023/04/10 07:18:37;;;;;;;9.55;8.77;;;;;;;;;;5053210;28;20405;-82
2023/04/10 07:21:08;;;;;;;9.80;9.00;;;;;;;;;;5053268;28;20711;-82
2023/04/10 07:23:34;;;;;;;9.68;8.88;;;;;;;;;;5054199;28;20415;-84
2023/04/10 07:26:00;;;;;;;9.57;8.77;;;;;;;;;;5073396;28;20733;-84
2023/04/10 07:28:26;;;;;;;10.00;9.20;;;;;;;;;;5073601;28;20376;-86
2023/04/10 07:30:52;;;;;;;10.27;9.45;;;;;;;;;;5068104;28;20374;-86
2023/04/10 07:33:19;;;;;;;9.80;9.00;;;;;;;;;;5064525;28;20474;-86
2023/04/10 07:35:45;;;;;;;9.20;8.45;;;;;;;;;;5069798;28;20381;-86
2023/04/10 07:38:12;;;;;;;9.77;8.97;;;;;;;;;;5062530;28;20574;-87
2023/04/10 07:40:38;;;;;;;9.27;8.50;;;;;;;;;;5073125;28;20376;-86
2023/04/10 07:43:04;;;;;;;10.18;9.35;;;;;;;;;;5073078;28;20936;-86
2023/04/10 07:45:30;;;;;;;10.03;9.23;;;;;;;;;;5073079;28;20379;-86
2023/04/10 07:47:58;;;;;;;9.65;8.85;;;;;;;;;;5067347;28;20378;-87
2023/04/10 07:50:24;;;;;;;9.30;8.60;;;;;;;;;;5079181;22;20380;-80
2023/04/10 07:52:50;;;;;;;8.93;8.23;;;;;;;;;;5075252;28;20405;-80
2023/04/10 07:55:16;;;;;;;9.18;8.48;;;;;;;;;;5079690;28;20427;-80
2023/04/10 07:57:42;;;;;;;9.10;8.40;;;;;;;;;;5088670;28;20991;-80
2023/04/10 08:00:08;;;;;;;9.45;8.75;;;;;;;;;;5092637;28;20377;-80
2023/04/10 08:02:34;;;;;;;9.50;8.70;;;;;;;;;;5082807;28;20489;-80
2023/04/10 08:05:00;;;;;;;8.73;7.93;;;;;;;;;;5086544;28;20376;-80
2023/04/10 08:07:26;;;;;;;9.23;8.53;;;;;;;;;;5084923;28;20431;-80
2023/04/10 08:09:52;;;;;;;8.40;7.72;;;;;;;;;;5083710;28;20751;-80
2023/04/10 08:12:18;;;;;;;9.20;8.50;;;;;;;;;;5092538;28;20386;-80
2023/04/10 08:14:44;;;;;;;8.50;7.80;;;;;;;;;;5092462;28;20397;-80
2023/04/10 08:17:13;;;;;;;8.55;7.95;;;;;;;;;;5092519;28;20374;-80
2023/04/10 08:19:40;;;;;;;8.48;7.88;;;;;;;;;;5079955;28;20402;-80
2023/04/10 08:22:06;;;;;;;8.60;7.90;;;;;;;;;;5085549;28;20746;-80
2023/04/10 08:24:32;;;;;;;8.50;7.80;;;;;;;;;;5081113;28;20378;-80
2023/04/10 08:26:57;;;;;;;8.50;7.80;;;;;;;;;;5077899;28;20453;-80
2023/04/10 08:29:24;;;;;;;8.35;7.65;;;;;;;;;;5092309;28;20410;-80
2023/04/10 08:31:49;;;;;;;9.23;8.43;;;;;;;;;;5092103;28;20374;-80
2023/04/10 08:34:15;;;;;;;8.18;7.47;;;;;;;;;;5077309;28;20762;-80
2023/04/10 08:36:42;;;;;;;9.20;8.50;;;;;;;;;;5080903;28;20380;-81
2023/04/10 08:39:07;;;;;;;8.15;7.55;;;;;;;;;;5088920;28;20397;-81
2023/04/10 08:41:34;;;;;;;8.35;7.75;;;;;;;;;;5091938;28;20370;-80
2023/04/10 08:44:00;;;;;;;8.68;8.02;;;;;;;;;;5076272;28;20413;-80
2023/04/10 08:46:26;;;;;;;7.90;7.30;;;;;;;;;;5092040;28;20867;-81
2023/04/10 08:49:15;;;;;;;7.25;6.75;;;;;;;;;;5091939;28;20464;-80
2023/04/10 08:51:46;;;;;;;8.57;7.88;;;;;;;;;;5090257;28;20432;-80
2023/04/10 08:54:19;;;;;;;7.63;7.03;;;;;;;;;;5090587;28;20383;-81
2023/04/10 08:56:49;;;;;;;8.20;7.60;;;;;;;;;;5079796;28;20442;-81
2023/04/10 08:59:15;;;;;;;7.93;7.22;;;;;;;;;;5077805;28;20407;-80
2023/04/10 09:01:41;;;;;;;8.10;7.40;;;;;;;;;;5091981;28;20926;-81
2023/04/10 09:04:07;;;;;;;7.80;7.20;;;;;;;;;;5092069;28;20406;-81
2023/04/10 09:06:34;;;;;;;7.50;6.95;;;;;;;;;;5077641;28;20430;-80
2023/04/10 09:08:59;;;;;;;7.30;6.75;;;;;;;;;;5094498;28;20418;-80
2023/04/10 09:11:45;;;;;;;8.27;7.68;;;;;;;;;;5091359;28;20390;-80
2023/04/10 09:14:21;;;;;;;7.68;7.07;;;;;;;;;;5093988;28;20867;-80
2023/04/10 09:16:48;;;;;;;8.38;7.57;;;;;;;;;;5093700;28;20382;-81
2023/04/10 09:19:28;;;;;;;7.72;7.15;;;;;;;;;;5092903;28;20410;-82
2023/04/10 09:21:55;;;;;;;8.02;7.43;;;;;;;;;;5090602;28;20381;-81
2023/04/10 09:24:21;;;;;;;7.70;7.10;;;;;;;;;;5079583;28;20392;-81
2023/04/10 09:26:47;;;;;;;7.13;6.63;;;;;;;;;;5092712;28;20386;-81
2023/04/10 09:29:15;;;;;;;6.97;6.30;;;;;;;;;;5093287;28;20381;-80
2023/04/10 09:31:42;;;;;;;6.88;6.38;;;;;;;;;;5092304;28;20460;-81
2023/04/10 09:34:13;;;;;;;7.20;6.70;;;;;;;;;;5092501;28;20383;-80
2023/04/10 09:36:40;;;;;;;7.10;6.47;;;;;;;;;;5092367;28;20383;-81
2023/04/10 09:39:06;;;;;;;6.50;6.10;;;;;;;;;;5090622;28;20409;-81
2023/04/10 09:41:32;;;;;;;6.70;6.20;;;;;;;;;;5083016;28;20372;-81
2023/04/10 09:44:06;;;;;;;6.60;6.10;;;;;;;;;;5087885;28;20377;-81
2023/04/10 09:46:32;;;;;;;6.22;5.82;;;;;;;;;;5095351;28;20777;-81
2023/04/10 09:49:00;;;;;;;6.32;5.82;;;;;;;;;;5097356;28;20386;-81
2023/04/10 09:51:30;;;;;;;6.40;5.90;;;;;;;;;;5091174;28;20976;-81
2023/04/10 09:53:56;;;;;;;6.05;5.65;;;;;;;;;;5077481;28;20387;-81
2023/04/10 09:56:22;;;;;;;6.15;5.65;;;;;;;;;;5078686;28;20466;-81
2023/04/10 09:58:49;;;;;;;5.88;5.38;;;;;;;;;;5090733;28;20758;-81
2023/04/10 10:01:16;;;;;;;6.10;5.65;;;;;;;;;;5067493;28;20465;-81
2023/04/10 10:03:43;;;;;;;5.78;5.38;;;;;;;;;;5098660;28;20374;-81
2023/04/10 10:06:11;;;;;;;5.70;5.30;;;;;;;;;;5096912;28;20483;-82
2023/04/10 10:08:37;;;;;;;5.60;5.20;;;;;;;;;;5094397;28;20378;-81
2023/04/10 10:11:05;;;;;;;5.57;5.18;;;;;;;;;;5093746;28;20447;-81
2023/04/10 10:13:35;;;;;;;5.60;5.20;;;;;;;;;;5097458;28;20374;-81
2023/04/10 10:16:01;;;;;;;5.77;5.30;;;;;;;;;;5098965;28;20385;-81
2023/04/10 10:18:35;;;;;;;4.82;4.43;;;;;;;;;;5094535;28;20409;-81
2023/04/10 10:21:02;;;;;;;4.80;4.50;;;;;;;;;;5095191;28;20424;-81
2023/04/10 10:23:28;;;;;;;4.67;4.27;;;;;;;;;;5080265;28;20383;-81
2023/04/10 10:25:55;;;;;;;5.57;4.53;;;;;;;;;;5094712;28;20374;-81
2023/04/10 10:28:22;;;;;;;4.20;3.90;;;;;;;;;;5081998;28;20729;-81
2023/04/10 10:30:48;;;;;;;5.15;4.75;;;;;;;;;;5073985;28;20399;-80
2023/04/10 10:33:14;;;;;;;4.03;3.72;;;;;;;;;;5074017;28;20388;-81
2023/04/10 10:35:41;;;;;;;3.70;3.40;;;;;;;;;;5091124;28;20855;-81
2023/04/10 10:38:07;;;;;;;3.70;3.40;;;;;;;;;;5094569;28;20408;-81
2023/04/10 10:40:33;;;;;;;3.33;3.13;;;;;;;;;;5094272;28;20405;-81
2023/04/10 10:43:18;;;;;;;2.72;2.53;;;;;;;;;;5094491;28;21011;-81
2023/04/10 10:45:50;;;;;;;3.03;2.63;;;;;;;;;;5077314;28;20386;-81
2023/04/10 10:48:16;;;;;;;3.05;2.85;;;;;;;;;;5094299;28;20374;-81
2023/04/10 10:50:56;;;;;;;2.90;2.70;;;;;;;;;;5093967;28;20410;-81
2023/04/10 10:53:32;;;;;;;3.45;3.20;;;;;;;;;;5094246;28;20371;-81
2023/04/10 10:55:59;;;;;;;3.22;3.03;;;;;;;;;;5093527;28;20386;-81
2023/04/10 10:58:43;;;;;;;3.10;2.90;;;;;;;;;;5094118;28;20538;-81
2023/04/10 11:01:09;;;;;;;3.50;3.20;;;;;;;;;;5092574;28;20802;-81
2023/04/10 11:03:36;;;;;;;3.30;3.10;;;;;;;;;;5094115;28;20377;-81
2023/04/10 11:06:05;;;;;;;2.80;2.60;;;;;;;;;;5094034;28;20370;-81
2023/04/10 11:08:34;;;;;;;3.10;2.90;;;;;;;;;;5094582;28;20389;-81
2023/04/10 11:11:08;;;;;;;3.03;2.83;;;;;;;;;;5089418;28;20461;-81
2023/04/10 11:13:34;;;;;;;2.53;2.42;;;;;;;;;;5093437;28;20370;-81
2023/04/10 11:16:02;;;;;;;2.60;2.40;;;;;;;;;;5095114;28;20423;-82
2023/04/10 11:18:46;;;;;;;2.58;2.38;;;;;;;;;;5093739;28;20454;-82
2023/04/10 11:21:13;;;;;;;3.10;2.90;;;;;;;;;;5090310;28;20381;-82
2023/04/10 11:23:59;;;;;;;2.78;2.58;;;;;;;;;;5080127;28;20384;-82
2023/04/10 11:26:38;;;;;;;3.00;2.80;;;;;;;;;;5094333;28;20859;-82
2023/04/10 11:29:13;;;;;;;2.67;2.50;;;;;;;;;;5076217;28;20429;-83
2023/04/10 11:31:39;;;;;;;2.47;2.28;;;;;;;;;;5075045;28;20372;-82
2023/04/10 11:34:09;;;;;;;2.38;2.17;;;;;;;;;;5074260;28;20388;-82
2023/04/10 11:36:38;;;;;;;2.65;2.45;;;;;;;;;;5075334;28;20379;-82
2023/04/10 11:39:07;;;;;;;2.33;2.22;;;;;;;;;;5091306;28;20558;-81
2023/04/10 11:41:37;;;;;;;2.45;2.25;;;;;;;;;;5094137;28;20844;-82
2023/04/10 11:44:24;;;;;;;2.60;2.40;;;;;;;;;;5096245;28;20386;-81
2023/04/10 11:46:50;;;;;;;2.80;2.60;;;;;;;;;;5097613;28;20855;-80
2023/04/10 11:49:17;;;;;;;2.38;2.17;;;;;;;;;;5098872;28;20447;-80
2023/04/10 11:51:45;;;;;;;2.78;2.58;;;;;;;;;;5095768;28;20455;-80
2023/04/10 11:54:12;;;;;;;2.60;2.40;;;;;;;;;;5084515;28;20380;-81
2023/04/10 11:56:39;;;;;;;2.90;2.70;;;;;;;;;;5081914;28;20372;-81
2023/04/10 11:59:18;;;;;;;2.70;2.50;;;;;;;;;;5083595;28;20398;-81
2023/04/10 12:01:45;;;;;;;2.80;2.60;;;;;;;;;;5099131;28;20374;-81
2023/04/10 12:04:15;;;;;;;2.90;2.70;;;;;;;;;;5096767;28;20374;-81
2023/04/10 12:06:45;;;;;;;2.50;2.30;;;;;;;;;;5071104;28;20378;-81
2023/04/10 12:09:18;;;;;;;2.33;2.23;;;;;;;;;;5092429;28;20396;-81
2023/04/10 12:11:50;;;;;;;2.57;2.37;;;;;;;;;;5083628;28;20432;-81
2023/04/10 12:14:16;;;;;;;2.97;2.67;;;;;;;;;;5090223;28;20388;-81
2023/04/10 12:16:43;;;;;;;2.47;2.38;;;;;;;;;;5096941;28;20954;-82
2023/04/10 12:19:10;;;;;;;2.63;2.42;;;;;;;;;;5096115;28;20398;-81
2023/04/10 12:21:36;;;;;;;2.87;2.67;;;;;;;;;;5094503;28;20397;-81
2023/04/10 12:24:02;;;;;;;2.28;2.17;;;;;;;;;;5082591;28;20381;-81
2023/04/10 12:26:28;;;;;;;2.38;2.17;;;;;;;;;;5084674;28;20417;-82
2023/04/10 12:28:58;;;;;;;2.50;2.30;;;;;;;;;;5080967;28;20394;-81
2023/04/10 12:31:32;;;;;;;2.50;2.30;;;;;;;;;;5098427;28;20404;-82
2023/04/10 12:33:58;;;;;;;2.00;1.90;;;;;;;;;;5097288;28;20413;-81
2023/04/10 12:36:28;;;;;;;2.50;2.30;;;;;;;;;;5088457;28;20387;-81
2023/04/10 12:38:54;;;;;;;2.50;2.30;;;;;;;;;;5078278;28;20877;-81
2023/04/10 12:41:25;;;;;;;2.53;2.33;;;;;;;;;;5096373;28;20911;-82
2023/04/10 12:43:52;;;;;;;3.25;2.95;;;;;;;;;;5096209;28;20414;-82
2023/04/10 12:46:28;;;;;;;2.88;2.67;;;;;;;;;;5090530;28;20375;-82
2023/04/10 12:49:07;;;;;;;2.50;2.30;;;;;;;;;;5075084;28;20383;-82
2023/04/10 12:51:54;;;;;;;2.40;2.20;;;;;;;;;;5082551;28;20398;-82
2023/04/10 12:54:33;;;;;;;2.10;2.00;;;;;;;;;;5083219;28;20926;-81
2023/04/10 12:57:00;;;;;;;2.13;2.03;;;;;;;;;;5099108;28;20374;-81
2023/04/10 12:59:26;;;;;;;2.30;2.10;;;;;;;;;;5095315;28;20409;-81
2023/04/10 13:01:53;;;;;;;2.75;2.50;;;;;;;;;;5095352;28;20373;-81
2023/04/10 13:04:19;;;;;;;2.80;2.60;;;;;;;;;;5093755;28;20379;-81
2023/04/10 13:06:46;;;;;;;2.90;2.70;;;;;;;;;;5095839;28;20432;-81
2023/04/10 13:09:12;;;;;;;3.27;2.97;;;;;;;;;;5088367;28;20410;-81
2023/04/10 13:11:38;;;;;;;2.97;2.78;;;;;;;;;;5079876;28;20465;-82
2023/04/10 13:14:04;;;;;;;2.80;2.60;;;;;;;;;;5074068;28;20399;-81
2023/04/10 13:16:30;;;;;;;3.17;2.95;;;;;;;;;;5086855;28;20386;-81
2023/04/10 13:18:56;;;;;;;2.97;2.78;;;;;;;;;;5071416;28;20764;-81
2023/04/10 13:21:25;;;;;;;2.92;2.72;;;;;;;;;;5068943;28;21095;-80
2023/04/10 13:23:52;;;;;;;3.00;2.70;;;;;;;;;;5078900;28;20389;-80
2023/04/10 13:26:18;;;;;;;2.65;2.45;;;;;;;;;;5081348;28;20465;-80
2023/04/10 13:28:44;;;;;;;2.25;2.10;;;;;;;;;;5076095;28;20380;-81
2023/04/10 13:31:10;;;;;;;2.10;2.00;;;;;;;;;;5072907;28;20391;-78
2023/04/10 13:33:36;;;;;;;2.35;2.15;;;;;;;;;;5071768;28;20466;-78
2023/04/10 13:36:02;;;;;;;2.50;2.30;;;;;;;;;;5071835;28;20864;-79
2023/04/10 13:38:28;;;;;;;3.83;2.60;;;;;;;;;;5067617;28;20496;-78
2023/04/10 13:40:54;;;;;;;2.05;1.95;;;;;;;;;;5073545;28;20383;-78
2023/04/10 13:43:20;;;;;;;2.80;1.90;;;;;;;;;;5073162;28;20390;-79
2023/04/10 13:45:46;;;;;;;2.00;1.90;;;;;;;;;;5070195;28;20873;-79
2023/04/10 13:48:14;;;;;;;2.50;2.30;;;;;;;;;;5063917;28;20889;-79
2023/04/10 13:50:40;;;;;;;2.20;2.00;;;;;;;;;;5065890;28;20415;-80
2023/04/10 13:53:09;;;;;;;1.75;1.65;;;;;;;;;;5067778;28;20445;-80
2023/04/10 13:55:36;;;;;;;2.33;2.03;;;;;;;;;;5067380;28;20750;-81
2023/04/10 13:58:02;;;;;;;1.73;1.63;;;;;;;;;;5076586;28;20417;-80
2023/04/10 14:00:28;;;;;;;2.00;1.90;;;;;;;;;;5072548;28;20454;-81
2023/04/10 14:02:54;;;;;;;2.30;2.10;;;;;;;;;;5071087;28;20927;-81
2023/04/10 14:05:20;;;;;;;1.85;1.67;;;;;;;;;;5070768;28;20376;-82
2023/04/10 14:07:47;;;;;;;1.98;1.73;;;;;;;;;;5070728;28;20376;-81
2023/04/10 14:10:13;;;;;;;1.80;1.70;;;;;;;;;;5071225;28;20375;-81
2023/04/10 14:12:39;;;;;;;1.80;1.70;;;;;;;;;;5070026;28;20876;-82
2023/04/10 14:15:05;;;;;;;2.43;2.23;;;;;;;;;;5071123;28;20478;-81
2023/04/10 14:17:31;;;;;;;1.98;1.88;;;;;;;;;;5071363;28;20384;-81
2023/04/10 14:19:57;;;;;;;2.00;1.90;;;;;;;;;;5071356;28;20492;-81
2023/04/10 14:22:23;;;;;;;2.40;1.90;;;;;;;;;;5071395;28;20384;-81
2023/04/10 14:24:49;;;;;;;1.90;1.80;;;;;;;;;;5072365;28;20466;-81
2023/04/10 14:27:15;;;;;;;2.20;2.00;;;;;;;;;;5068083;28;20417;-81
2023/04/10 14:29:41;;;;;;;2.33;2.00;;;;;;;;;;5072018;28;20391;-81
2023/04/10 14:32:07;;;;;;;3.17;2.97;;;;;;;;;;5073514;28;20375;-81
2023/04/10 14:34:34;;;;;;;2.00;1.80;;;;;;;;;;5075758;28;20452;-82
2023/04/10 14:37:00;;;;;;;1.88;1.77;;;;;;;;;;5078046;28;20419;-81
2023/04/10 14:39:26;;;;;;;1.92;1.83;;;;;;;;;;5075188;28;20454;-81
2023/04/10 14:41:52;;;;;;;1.70;1.60;;;;;;;;;;5079665;22;20917;-82
2023/04/10 14:44:18;;;;;;;2.10;2.00;;;;;;;;;;5052388;28;20447;-83